PORT of KWINANA

Country: Australia Country: Australia (AU)
Latitude / Longitude: -32.206005° / 115.72645° Show on Map Show on Map
Local Time:  UTC +8
UN/LOCODE: AUKWI
Vessels in Port: 17
Expected Arrivals: 18

Recent Arrivals & Departures


Vessel Name
Arrival (UTC)
Arrival (LT)
Departure (UTC)
Departure (LT)
Vessel Type: Cargo Vessels  SOUTHERN SPIRIT 2014-10-18 03:40:00 2014-10-18 11:40:00 2014-10-23 17:01:00 2014-10-24 01:01:00
Vessel Type: Tugs, Pilots etc  SEAHORSE STANDARD 2014-10-01 05:25:00 2014-10-01 13:25:00 2014-10-23 12:42:00 2014-10-23 20:42:00
Vessel Type: Tugs, Pilots etc  OSPREY 2014-10-22 22:54:00 2014-10-23 06:54:00 2014-10-23 00:56:00 2014-10-23 08:56:00
Vessel Type: Yachts & Others  QUENDA 2014-10-22 22:58:00 2014-10-23 06:58:00 2014-10-23 00:55:00 2014-10-23 08:55:00
Vessel Type: Tugs, Pilots etc  WAMBIRI 2014-10-22 22:53:00 2014-10-23 06:53:00
Vessel Type: Tugs, Pilots etc  JAYA CRYSTAL 2014-10-22 22:52:00 2014-10-23 06:52:00
Vessel Type: Tugs, Pilots etc  WAMBIRI 2014-10-21 06:51:00 2014-10-21 14:51:00 2014-10-22 21:40:00 2014-10-23 05:40:00
Vessel Type: Tugs, Pilots etc  PARMELIA 2014-10-22 10:54:00 2014-10-22 18:54:00 2014-10-22 11:28:00 2014-10-22 19:28:00
Vessel Type: Tugs, Pilots etc  PARMELIA 2014-10-22 07:26:00 2014-10-22 15:26:00 2014-10-22 07:38:00 2014-10-22 15:38:00
Vessel Type: Tugs, Pilots etc  M3301 2014-10-22 05:36:00 2014-10-22 13:36:00

Expected Arrivals


Vessel Name
Scheduled Arrival (UTC)
Scheduled Arrival (LT)
Estimated Arrival (UTC)
Estimated Arrival (LT)
Vessel Type: Tankers  BRITISH GANNET 2014-10-23 20:00:00 2014-10-24 04:00:00
Vessel Type: Cargo Vessels  CORIO BAY 2014-10-24 18:00:00 2014-10-25 02:00:00 2014-10-24 18:36:00 2014-10-25 02:36:00
Vessel Type: Cargo Vessels  ORIENT ALLIANCE 2014-10-26 06:00:00 2014-10-26 14:00:00 2014-10-26 13:18:00 2014-10-26 21:18:00
Vessel Type: Tankers  BRITISH FIDELITY 2014-10-26 17:00:00 2014-10-27 01:00:00 2014-10-26 08:44:00 2014-10-26 16:44:00
Vessel Type: Cargo Vessels  GLORIOSA I 2014-10-28 09:00:00 2014-10-28 17:00:00 2014-10-28 05:00:00 2014-10-28 13:00:00
Vessel Type: Tankers  CHALLENGE PROCYON 2014-10-28 20:00:00 2014-10-29 04:00:00 2014-10-28 03:06:00 2014-10-28 11:06:00
Vessel Type: Cargo Vessels  K&A SP 2014-10-28 21:00:00 2014-10-29 05:00:00 2014-10-27 18:34:00 2014-10-28 02:34:00
Vessel Type: Tankers  SEAVOYAGER 2014-10-29 08:00:00 2014-10-29 16:00:00 2014-11-05 02:09:00 2014-11-05 10:09:00
Vessel Type: Cargo Vessels  JIN QUAN 2014-10-29 15:00:00 2014-10-29 23:00:00 2014-10-29 03:55:00 2014-10-29 11:55:00
Vessel Type: Cargo Vessels  PAN IVY 2014-10-29 20:00:00 2014-10-30 04:00:00 2014-10-29 22:32:00 2014-10-30 06:32:00

Wind Forecast


    
Time (UTC)
Speed
Direction
Temperature
2014-10-23 18:00:00 9 knots 138° 16°C
2014-10-23 21:00:00 9 knots 114° 15°C
2014-10-24 00:00:00 6 knots 90° 17°C
2014-10-24 03:00:00 2 knots 262° 20°C
2014-10-24 06:00:00 13 knots 237° 20°C
2014-10-24 09:00:00 11 knots 228° 19°C
2014-10-24 12:00:00 8 knots 211° 18°C
2014-10-24 15:00:00 7 knots 203° 18°C
2014-10-24 18:00:00 4 knots 221° 17°C
2014-10-24 21:00:00 5 knots 289° 17°C
2014-10-25 00:00:00 9 knots 282° 19°C
2014-10-25 03:00:00 14 knots 271° 19°C
2014-10-25 06:00:00 15 knots 279° 20°C
2014-10-25 09:00:00 17 knots 249° 19°C
2014-10-25 12:00:00 14 knots 230° 17°C
2014-10-25 15:00:00 12 knots 221° 17°C
2014-10-25 18:00:00 11 knots 216° 17°C

NO_PHOTO

No Photos for this port. Be the first to upload one!